createdAt,value
2023-02-24T00:01:24.740Z,37.63
2023-02-24T00:03:52.952Z,39.92
2023-02-24T00:06:20.240Z,40.22
2023-02-24T00:08:48.158Z,41.85
2023-02-24T00:11:18.875Z,40.67
2023-02-24T00:13:47.295Z,41.00
2023-02-24T00:16:16.529Z,43.25
2023-02-24T00:18:44.159Z,48.72
2023-02-24T00:21:14.821Z,49.03
2023-02-24T00:23:42.881Z,41.97
2023-02-24T00:26:11.405Z,40.45
2023-02-24T00:28:40.308Z,34.78
2023-02-24T00:31:09.853Z,34.00
2023-02-24T00:33:39.261Z,32.85
2023-02-24T00:36:10.117Z,33.67
2023-02-24T00:38:37.476Z,38.28
2023-02-24T00:41:14.233Z,42.85
2023-02-24T00:43:46.800Z,43.92
2023-02-24T00:46:17.100Z,39.97
2023-02-24T00:48:45.964Z,36.88
2023-02-24T00:51:13.853Z,34.83
2023-02-24T00:53:41.448Z,34.55
2023-02-24T00:56:11.962Z,32.85
2023-02-24T00:58:39.551Z,31.05
2023-02-24T01:01:13.711Z,30.73
2023-02-24T01:03:41.823Z,31.60
2023-02-24T01:06:09.199Z,30.35
2023-02-24T01:08:42.629Z,32.00
2023-02-24T01:11:27.993Z,29.10
2023-02-24T01:13:55.345Z,23.98
2023-02-24T01:16:24.042Z,19.80
2023-02-24T01:18:51.853Z,17.88
2023-02-24T01:21:20.273Z,15.35
2023-02-24T01:23:48.353Z,15.15
2023-02-24T01:26:16.071Z,15.00
2023-02-24T01:28:43.423Z,16.15
2023-02-24T01:31:10.923Z,15.55
2023-02-24T01:33:39.846Z,14.10
2023-02-24T01:36:10.875Z,14.30
2023-02-24T01:38:39.055Z,17.00
2023-02-24T01:41:07.767Z,16.17
2023-02-24T01:43:55.383Z,14.38
2023-02-24T01:46:23.904Z,15.23
2023-02-24T01:48:53.104Z,19.25
2023-02-24T01:51:21.169Z,20.92
2023-02-24T01:53:49.245Z,21.33
2023-02-24T01:56:16.976Z,21.83
2023-02-24T01:58:44.410Z,20.50
2023-02-24T02:01:14.217Z,22.10
2023-02-24T02:03:42.322Z,19.92
2023-02-24T02:06:12.346Z,20.17
2023-02-24T02:08:41.342Z,20.92
2023-02-24T02:11:10.017Z,19.45
2023-02-24T02:13:38.200Z,20.73
2023-02-24T02:16:13.650Z,21.92
2023-02-24T02:18:46.596Z,23.95
2023-02-24T02:21:25.709Z,20.88
2023-02-24T02:24:00.274Z,17.75
2023-02-24T02:26:41.266Z,14.82
2023-02-24T02:29:26.067Z,15.13
2023-02-24T02:32:03.667Z,14.23
2023-02-24T02:34:37.448Z,15.77
2023-02-24T02:37:07.625Z,17.58
2023-02-24T02:39:38.537Z,16.48
2023-02-24T02:42:14.839Z,18.27
2023-02-24T02:44:47.990Z,18.67
2023-02-24T02:47:22.976Z,17.92
2023-02-24T02:49:53.273Z,16.25
2023-02-24T02:52:24.083Z,15.00
2023-02-24T02:54:53.830Z,13.38
2023-02-24T02:57:24.828Z,12.38
2023-02-24T02:59:54.438Z,13.18
2023-02-24T03:02:28.341Z,13.18
2023-02-24T03:04:59.189Z,12.03
2023-02-24T03:07:30.965Z,11.00
2023-02-24T03:10:00.186Z,9.63
2023-02-24T03:12:30.558Z,10.15
2023-02-24T03:14:59.323Z,8.68
2023-02-24T03:17:27.817Z,10.38
2023-02-24T03:20:01.183Z,8.50
2023-02-24T03:22:34.506Z,8.90
2023-02-24T03:25:02.343Z,8.02
2023-02-24T03:27:31.643Z,8.98
2023-02-24T03:30:01.204Z,8.13
2023-02-24T03:32:33.092Z,7.72
2023-02-24T03:35:06.380Z,8.77
2023-02-24T03:37:33.673Z,7.13
2023-02-24T03:40:07.681Z,7.20
2023-02-24T03:42:35.603Z,7.63
2023-02-24T03:45:03.466Z,6.70
2023-02-24T03:47:32.796Z,7.05
2023-02-24T03:50:00.164Z,5.85
2023-02-24T03:52:33.765Z,6.03
2023-02-24T03:55:13.717Z,6.22
2023-02-24T03:57:55.985Z,6.43
2023-02-24T04:00:26.600Z,6.57
2023-02-24T04:02:58.304Z,5.00
2023-02-24T04:05:29.105Z,5.53
2023-02-24T04:08:00.375Z,5.47
2023-02-24T04:10:31.698Z,4.63
2023-02-24T04:13:01.954Z,6.47
2023-02-24T04:15:32.131Z,6.70
2023-02-24T04:18:01.980Z,5.82
2023-02-24T04:20:31.952Z,5.60
2023-02-24T04:23:03.757Z,6.90
2023-02-24T04:25:32.345Z,5.57
2023-02-24T04:28:00.451Z,5.35
2023-02-24T04:30:30.141Z,5.50
2023-02-24T04:32:57.505Z,5.68
2023-02-24T04:35:26.575Z,5.57
2023-02-24T04:37:54.689Z,5.25
2023-02-24T04:40:23.594Z,4.95
2023-02-24T04:42:51.739Z,5.30
2023-02-24T04:45:20.240Z,5.97
2023-02-24T04:47:51.079Z,6.47
2023-02-24T04:50:23.783Z,6.07
2023-02-24T04:52:52.478Z,6.25
2023-02-24T04:55:20.943Z,4.90
2023-02-24T04:57:49.898Z,5.55
2023-02-24T05:00:22.404Z,4.53
2023-02-24T05:02:53.567Z,5.28
2023-02-24T05:05:25.309Z,5.43
2023-02-24T05:07:52.689Z,4.63
2023-02-24T05:10:20.465Z,4.70
2023-02-24T05:12:47.781Z,4.88
2023-02-24T05:15:16.450Z,4.43
2023-02-24T05:17:43.796Z,5.13
2023-02-24T05:20:29.357Z,5.32
2023-02-24T05:22:57.446Z,4.05
2023-02-24T05:25:25.832Z,4.18
2023-02-24T05:27:53.194Z,4.25
2023-02-24T05:30:21.853Z,3.90
2023-02-24T05:32:49.236Z,6.68
2023-02-24T05:35:16.584Z,4.10
2023-02-24T05:37:44.869Z,5.05
2023-02-24T05:40:14.682Z,4.97
2023-02-24T05:42:45.135Z,5.32
2023-02-24T05:45:12.597Z,5.03
2023-02-24T05:47:45.360Z,5.25
2023-02-24T05:50:13.351Z,4.40
2023-02-24T05:52:40.655Z,4.00
2023-02-24T05:55:13.863Z,4.22
2023-02-24T05:57:41.343Z,4.35
2023-02-24T06:00:15.893Z,4.25
2023-02-24T06:02:49.538Z,4.28
2023-02-24T06:05:25.579Z,4.10
2023-02-24T06:08:04.618Z,3.78
2023-02-24T06:10:33.856Z,4.35
2023-02-24T06:13:01.822Z,3.85
2023-02-24T06:15:29.412Z,4.68
2023-02-24T06:18:00.768Z,5.38
2023-02-24T06:20:28.681Z,4.43
2023-02-24T06:22:57.936Z,4.82
2023-02-24T06:25:25.785Z,4.75
2023-02-24T06:27:56.319Z,4.65
2023-02-24T06:30:24.568Z,5.00
2023-02-24T06:32:52.323Z,5.22
2023-02-24T06:35:21.406Z,4.97
2023-02-24T06:37:48.766Z,6.28
2023-02-24T06:40:17.076Z,6.32
2023-02-24T06:42:48.112Z,5.28
2023-02-24T06:45:15.916Z,4.28
2023-02-24T06:47:43.779Z,5.65
2023-02-24T06:50:12.325Z,5.45
2023-02-24T06:52:43.150Z,5.00
2023-02-24T06:55:25.227Z,4.90
2023-02-24T06:57:59.086Z,5.18
2023-02-24T07:00:36.941Z,5.60
2023-02-24T07:03:14.630Z,5.60
2023-02-24T07:05:50.110Z,4.18
2023-02-24T07:08:20.920Z,6.13
2023-02-24T07:10:52.561Z,6.18
2023-02-24T07:13:19.960Z,4.90
2023-02-24T07:15:49.362Z,6.28
2023-02-24T07:18:17.278Z,5.50
2023-02-24T07:20:46.116Z,5.15
2023-02-24T07:23:14.101Z,5.82
2023-02-24T07:25:43.310Z,5.72
2023-02-24T07:28:11.084Z,5.78
2023-02-24T07:30:39.270Z,5.05
2023-02-24T07:33:06.825Z,4.80
2023-02-24T07:35:35.460Z,5.05
2023-02-24T07:38:04.919Z,6.05
2023-02-24T07:40:33.370Z,4.55
2023-02-24T07:43:03.170Z,5.20
2023-02-24T07:45:30.529Z,4.70
2023-02-24T07:47:59.467Z,4.57
2023-02-24T07:50:32.505Z,4.85
2023-02-24T07:53:00.105Z,4.15
2023-02-24T07:55:31.105Z,4.63
2023-02-24T07:57:58.407Z,5.28
2023-02-24T08:00:30.021Z,4.60
2023-02-24T08:02:57.807Z,4.90
2023-02-24T08:05:25.694Z,4.80
2023-02-24T08:07:55.531Z,5.25
2023-02-24T08:10:25.495Z,6.05
2023-02-24T08:12:55.471Z,6.57
2023-02-24T08:15:26.623Z,6.38
2023-02-24T08:17:59.317Z,5.80
2023-02-24T08:20:27.904Z,7.03
2023-02-24T08:22:55.621Z,5.50
2023-02-24T08:25:24.135Z,6.50
2023-02-24T08:28:12.263Z,6.93
2023-02-24T08:30:44.903Z,6.80
2023-02-24T08:33:17.343Z,6.55
2023-02-24T08:35:45.416Z,6.20
2023-02-24T08:38:14.858Z,7.28
2023-02-24T08:40:54.734Z,7.45
2023-02-24T08:43:32.706Z,7.18
2023-02-24T08:46:03.476Z,6.13
2023-02-24T08:48:37.040Z,6.25
2023-02-24T08:51:06.061Z,5.75
2023-02-24T08:53:33.369Z,5.97
2023-02-24T08:56:09.276Z,5.68
2023-02-24T08:58:40.822Z,5.75
2023-02-24T09:01:18.327Z,6.03
2023-02-24T09:03:48.585Z,5.75
2023-02-24T09:06:17.606Z,4.93
2023-02-24T09:08:46.510Z,5.40
2023-02-24T09:11:14.915Z,5.15
2023-02-24T09:13:51.580Z,4.55
2023-02-24T09:16:19.421Z,4.88
2023-02-24T09:19:08.321Z,4.93
2023-02-24T09:21:53.339Z,5.43
2023-02-24T09:24:27.070Z,5.00
2023-02-24T09:26:58.389Z,3.75
2023-02-24T09:29:34.698Z,4.75
2023-02-24T09:32:13.422Z,4.55
2023-02-24T09:34:43.920Z,5.05
2023-02-24T09:37:24.762Z,4.00
2023-02-24T09:40:15.189Z,4.28
2023-02-24T09:42:58.164Z,5.43
2023-02-24T09:45:33.260Z,4.07
2023-02-24T09:48:10.302Z,4.30
2023-02-24T09:51:02.080Z,4.18
2023-02-24T09:53:41.305Z,4.78
2023-02-24T09:56:15.973Z,4.85
2023-02-24T09:58:47.641Z,4.55
2023-02-24T10:01:33.104Z,3.90
2023-02-24T10:04:14.802Z,4.07
2023-02-24T10:06:49.194Z,5.10
2023-02-24T10:09:21.641Z,5.50
2023-02-24T10:11:54.385Z,5.75
2023-02-24T10:14:29.416Z,5.38
2023-02-24T10:17:22.354Z,5.55
2023-02-24T10:19:56.384Z,5.43
2023-02-24T10:22:29.231Z,5.60
2023-02-24T10:25:10.844Z,5.70
2023-02-24T10:27:45.479Z,6.32
2023-02-24T10:30:19.689Z,5.35
2023-02-24T10:32:50.508Z,5.82
2023-02-24T10:35:19.416Z,5.80
2023-02-24T10:37:49.091Z,5.57
2023-02-24T10:40:26.254Z,5.78
2023-02-24T10:43:04.127Z,6.10
2023-02-24T10:45:34.698Z,4.55
2023-02-24T10:48:08.559Z,5.53
2023-02-24T10:50:54.901Z,5.10
2023-02-24T10:53:34.698Z,4.95
2023-02-24T10:56:26.641Z,4.95
2023-02-24T10:59:20.437Z,4.80
2023-02-24T11:01:59.005Z,4.60
2023-02-24T11:04:53.833Z,4.47
2023-02-24T11:07:25.395Z,5.22
2023-02-24T11:10:11.251Z,4.25
2023-02-24T11:13:04.275Z,5.75
2023-02-24T11:15:55.039Z,6.25
2023-02-24T11:18:24.021Z,5.25
2023-02-24T11:20:53.583Z,4.88
2023-02-24T11:23:23.376Z,5.20
2023-02-24T11:25:53.276Z,5.63
2023-02-24T11:28:31.332Z,4.35
2023-02-24T11:31:06.125Z,4.28
2023-02-24T11:33:36.154Z,5.82
2023-02-24T11:36:05.987Z,5.30
2023-02-24T11:38:39.484Z,5.00
2023-02-24T11:41:12.534Z,4.13
2023-02-24T11:43:42.194Z,4.35
2023-02-24T11:46:13.212Z,4.72
2023-02-24T11:48:41.774Z,4.05
2023-02-24T11:51:13.017Z,4.70
2023-02-24T11:53:44.774Z,4.75
2023-02-24T11:56:16.520Z,4.22
2023-02-24T11:58:46.422Z,4.93
2023-02-24T12:01:17.277Z,5.30
2023-02-24T12:03:50.371Z,4.47
2023-02-24T12:06:19.413Z,6.07
2023-02-24T12:08:50.408Z,5.75
2023-02-24T12:11:22.627Z,5.68
2023-02-24T12:13:53.338Z,5.10
2023-02-24T12:16:23.768Z,6.35
2023-02-24T12:18:53.233Z,4.53
2023-02-24T12:21:23.761Z,6.22
2023-02-24T12:23:53.480Z,6.70
2023-02-24T12:26:24.094Z,6.18
2023-02-24T12:29:16.532Z,6.03
2023-02-24T12:31:53.245Z,6.65
2023-02-24T12:34:25.155Z,6.25
2023-02-24T12:37:00.623Z,5.20
2023-02-24T12:39:31.808Z,6.68
2023-02-24T12:42:07.348Z,5.95
2023-02-24T12:44:38.564Z,6.05
2023-02-24T12:47:07.772Z,6.35
2023-02-24T12:49:45.640Z,5.63
2023-02-24T12:52:15.683Z,5.32
2023-02-24T12:54:46.202Z,4.90
2023-02-24T12:57:20.047Z,5.38
2023-02-24T12:59:47.626Z,5.17
2023-02-24T13:02:17.911Z,6.75
2023-02-24T13:04:51.089Z,6.97
2023-02-24T13:07:28.241Z,7.75
2023-02-24T13:10:03.564Z,6.15
2023-02-24T13:12:36.143Z,6.97
2023-02-24T13:15:04.845Z,7.38
2023-02-24T13:17:32.209Z,5.80
2023-02-24T13:20:10.333Z,6.05
2023-02-24T13:22:41.991Z,6.13
2023-02-24T13:25:19.650Z,5.40
2023-02-24T13:27:55.624Z,4.75
2023-02-24T13:30:29.438Z,6.82
2023-02-24T13:33:01.688Z,7.13
2023-02-24T13:35:34.207Z,6.00
2023-02-24T13:38:09.374Z,6.80
2023-02-24T13:40:37.039Z,6.72
2023-02-24T13:43:05.699Z,6.72
2023-02-24T13:45:33.684Z,7.88
2023-02-24T13:48:10.711Z,7.90
2023-02-24T13:50:41.683Z,7.57
2023-02-24T13:53:24.539Z,4.78
2023-02-24T13:55:58.533Z,7.25
2023-02-24T13:58:36.398Z,7.00
2023-02-24T14:01:07.591Z,5.53
2023-02-24T14:03:35.354Z,5.40
2023-02-24T14:06:03.361Z,5.15
2023-02-24T14:08:34.676Z,6.45
2023-02-24T14:11:03.463Z,5.95
2023-02-24T14:13:34.130Z,6.25
2023-02-24T14:16:02.302Z,6.00
2023-02-24T14:18:30.393Z,4.97
2023-02-24T14:20:58.393Z,4.80
2023-02-24T14:23:26.319Z,4.72
2023-02-24T14:25:55.137Z,6.78
2023-02-24T14:28:24.223Z,4.82
2023-02-24T14:30:58.038Z,6.57
2023-02-24T14:33:28.528Z,5.40
2023-02-24T14:35:55.963Z,6.97
2023-02-24T14:38:34.533Z,5.78
2023-02-24T14:41:02.383Z,6.80
2023-02-24T14:43:30.704Z,4.68
2023-02-24T14:45:59.531Z,5.88
2023-02-24T14:48:27.733Z,6.30
2023-02-24T14:50:56.589Z,7.10
2023-02-24T14:53:24.608Z,7.10
2023-02-24T14:55:55.785Z,7.28
2023-02-24T14:58:25.305Z,8.13
2023-02-24T15:00:54.666Z,6.55
2023-02-24T15:03:24.573Z,7.70
2023-02-24T15:05:53.576Z,8.07
2023-02-24T15:08:32.417Z,7.82
2023-02-24T15:10:59.897Z,5.95
2023-02-24T15:13:30.543Z,8.13
2023-02-24T15:15:57.999Z,7.63
2023-02-24T15:18:27.918Z,7.47
2023-02-24T15:21:01.941Z,8.80
2023-02-24T15:23:31.427Z,6.32
2023-02-24T15:25:59.229Z,7.57
2023-02-24T15:28:30.528Z,6.75
2023-02-24T15:31:01.003Z,7.00
2023-02-24T15:33:33.655Z,6.40
2023-02-24T15:36:01.449Z,7.03
2023-02-24T15:38:31.153Z,8.32
2023-02-24T15:41:02.469Z,7.38
2023-02-24T15:43:33.528Z,7.65
2023-02-24T15:46:00.891Z,5.72
2023-02-24T15:48:31.273Z,6.10
2023-02-24T15:51:03.612Z,6.55
2023-02-24T15:53:30.930Z,7.85
2023-02-24T15:55:58.288Z,7.07
2023-02-24T15:58:25.660Z,6.72
2023-02-24T16:00:53.151Z,7.32
2023-02-24T16:03:20.629Z,8.05
2023-02-24T16:05:48.075Z,7.85
2023-02-24T16:08:18.325Z,6.82
2023-02-24T16:10:45.642Z,6.97
2023-02-24T16:13:17.601Z,7.65
2023-02-24T16:15:45.423Z,7.47
2023-02-24T16:18:20.965Z,7.32
2023-02-24T16:20:54.446Z,9.10
2023-02-24T16:23:24.103Z,7.07
2023-02-24T16:25:52.573Z,7.72
2023-02-24T16:28:21.074Z,5.70
2023-02-24T16:30:48.948Z,7.10
2023-02-24T16:33:17.220Z,8.95
2023-02-24T16:35:44.899Z,8.20
2023-02-24T16:38:14.890Z,7.32
2023-02-24T16:40:45.426Z,8.57
2023-02-24T16:43:13.201Z,8.93
2023-02-24T16:45:41.245Z,9.63
2023-02-24T16:48:10.221Z,7.63
2023-02-24T16:50:39.695Z,10.13
2023-02-24T16:53:07.795Z,10.60
2023-02-24T16:55:35.180Z,9.18
2023-02-24T16:58:03.864Z,9.35
2023-02-24T17:00:31.282Z,11.68
2023-02-24T17:02:58.744Z,9.82
2023-02-24T17:05:27.572Z,11.57
2023-02-24T17:07:56.120Z,12.35
2023-02-24T17:10:24.364Z,11.73
2023-02-24T17:12:51.687Z,13.75
2023-02-24T17:15:21.851Z,12.43
2023-02-24T17:17:49.223Z,21.75
2023-02-24T17:20:18.238Z,15.60
2023-02-24T17:22:46.516Z,25.63
2023-02-24T17:25:16.098Z,17.17
2023-02-24T17:27:49.733Z,21.73
2023-02-24T17:30:18.822Z,13.93
2023-02-24T17:32:47.551Z,14.00
2023-02-24T17:35:14.931Z,12.82
2023-02-24T17:37:42.511Z,28.13
2023-02-24T17:40:10.913Z,16.15
2023-02-24T17:42:38.230Z,15.48
2023-02-24T17:45:06.118Z,12.95
2023-02-24T17:47:34.276Z,17.95
2023-02-24T17:50:03.182Z,77.65
2023-02-24T17:52:31.774Z,11.27
2023-02-24T17:54:59.303Z,23.27
2023-02-24T17:57:29.274Z,16.83
2023-02-24T17:59:56.590Z,10.95
2023-02-24T18:02:25.072Z,12.48
2023-02-24T18:04:52.562Z,16.42
2023-02-24T18:07:21.996Z,16.92
2023-02-24T18:09:49.372Z,16.05
2023-02-24T18:12:18.474Z,12.82
2023-02-24T18:14:46.524Z,12.15
2023-02-24T18:17:15.183Z,38.30
2023-02-24T18:19:42.509Z,16.27
2023-02-24T18:22:09.844Z,22.73
2023-02-24T18:24:40.167Z,23.58
2023-02-24T18:27:07.629Z,18.83
2023-02-24T18:29:35.058Z,17.85
2023-02-24T18:32:03.174Z,22.92
2023-02-24T18:34:30.647Z,20.13
2023-02-24T18:36:58.002Z,18.90
2023-02-24T18:39:25.391Z,20.88
2023-02-24T18:41:54.082Z,23.73
2023-02-24T18:44:21.453Z,22.67
2023-02-24T18:46:48.885Z,26.17
2023-02-24T18:49:16.271Z,92.80
2023-02-24T18:51:45.800Z,24.02
2023-02-24T18:54:13.177Z,34.17
2023-02-24T18:56:40.649Z,57.05
2023-02-24T18:59:09.366Z,45.40
2023-02-24T19:01:38.455Z,43.95
2023-02-24T19:04:06.983Z,132.73
2023-02-24T19:06:34.985Z,36.58
2023-02-24T19:09:03.302Z,63.10
2023-02-24T19:11:30.817Z,95.45
2023-02-24T19:13:58.600Z,72.90
2023-02-24T19:16:27.569Z,24.35
2023-02-24T19:18:56.380Z,25.42
2023-02-24T19:21:24.239Z,82.47
2023-02-24T19:23:52.851Z,101.20
2023-02-24T19:26:21.787Z,40.63
2023-02-24T19:28:49.705Z,80.32
2023-02-24T19:31:18.112Z,22.05
2023-02-24T19:33:46.866Z,22.15
2023-02-24T19:36:14.248Z,28.20
2023-02-24T19:38:42.204Z,52.78
2023-02-24T19:41:09.549Z,42.67
2023-02-24T19:43:36.842Z,39.72
2023-02-24T19:46:06.084Z,19.17
2023-02-24T19:48:33.690Z,36.28
2023-02-24T19:51:06.700Z,89.32
2023-02-24T19:53:34.120Z,18.63
2023-02-24T19:56:01.538Z,17.55
2023-02-24T19:58:28.877Z,32.30
2023-02-24T20:00:56.251Z,69.40
2023-02-24T20:03:23.592Z,12.38
2023-02-24T20:05:50.934Z,43.92
2023-02-24T20:08:19.599Z,29.58
2023-02-24T20:10:46.878Z,12.27
2023-02-24T20:13:16.789Z,63.20
2023-02-24T20:15:44.080Z,46.45
2023-02-24T20:18:11.408Z,46.50
2023-02-24T20:20:38.714Z,28.95
2023-02-24T20:23:06.078Z,34.30
2023-02-24T20:25:34.843Z,54.42
2023-02-24T20:28:02.329Z,41.55
2023-02-24T20:30:29.624Z,28.10
2023-02-24T20:32:59.481Z,20.73
2023-02-24T20:35:28.255Z,53.35
2023-02-24T20:37:55.602Z,74.85
2023-02-24T20:40:22.992Z,15.80
2023-02-24T20:42:51.712Z,56.72
2023-02-24T20:45:19.120Z,12.40
2023-02-24T20:47:46.420Z,13.48
2023-02-24T20:50:14.653Z,7.18
2023-02-24T20:52:42.141Z,9.63
2023-02-24T20:55:09.732Z,12.48
2023-02-24T20:57:37.082Z,24.95
2023-02-24T21:00:07.967Z,17.80
2023-02-24T21:02:35.411Z,17.05
2023-02-24T21:05:02.874Z,17.92
2023-02-24T21:07:31.562Z,100.65
2023-02-24T21:09:58.993Z,75.38
2023-02-24T21:12:26.464Z,42.67
2023-02-24T21:14:53.903Z,85.43
2023-02-24T21:17:22.660Z,35.13
2023-02-24T21:19:50.677Z,74.63
2023-02-24T21:22:18.577Z,69.85
2023-02-24T21:24:46.031Z,92.75
2023-02-24T21:27:13.348Z,142.82
2023-02-24T21:29:40.755Z,14.68
2023-02-24T21:32:08.273Z,25.25
2023-02-24T21:34:37.877Z,20.77
2023-02-24T21:37:05.872Z,8.77
2023-02-24T21:39:33.367Z,34.63
2023-02-24T21:42:00.702Z,18.35
2023-02-24T21:44:28.287Z,12.38
2023-02-24T21:46:55.870Z,39.05
2023-02-24T21:49:23.434Z,14.52
2023-02-24T21:51:52.193Z,38.95
2023-02-24T21:54:19.484Z,45.17
2023-02-24T21:56:46.820Z,10.65
2023-02-24T21:59:14.160Z,10.52
2023-02-24T22:01:43.182Z,9.38
2023-02-24T22:04:12.436Z,15.82
2023-02-24T22:06:40.817Z,9.73
2023-02-24T22:09:10.527Z,6.50
2023-02-24T22:11:39.689Z,11.10
2023-02-24T22:14:07.532Z,8.07
2023-02-24T22:16:34.997Z,9.50
2023-02-24T22:19:02.465Z,34.85
2023-02-24T22:21:30.270Z,9.48
2023-02-24T22:23:59.110Z,5.38
2023-02-24T22:26:28.207Z,11.50
2023-02-24T22:28:55.946Z,51.10
2023-02-24T22:31:24.160Z,20.95
2023-02-24T22:33:51.898Z,91.97
2023-02-24T22:36:20.510Z,21.77
2023-02-24T22:38:48.193Z,32.53
2023-02-24T22:41:16.692Z,23.38
2023-02-24T22:43:45.448Z,15.45
2023-02-24T22:46:13.934Z,23.77
2023-02-24T22:48:41.365Z,8.77
2023-02-24T22:51:09.861Z,7.15
2023-02-24T22:53:38.169Z,6.07
2023-02-24T22:56:05.839Z,6.63
2023-02-24T22:58:33.348Z,6.30
2023-02-24T23:01:02.067Z,5.75
2023-02-24T23:03:31.407Z,4.90
2023-02-24T23:05:59.393Z,5.97
2023-02-24T23:08:27.346Z,6.07
2023-02-24T23:10:54.967Z,5.22
2023-02-24T23:13:22.369Z,5.40
2023-02-24T23:15:50.259Z,6.22
2023-02-24T23:18:18.982Z,5.95
2023-02-24T23:20:47.067Z,5.10
2023-02-24T23:23:14.634Z,4.72
2023-02-24T23:25:42.034Z,4.35
2023-02-24T23:28:09.466Z,4.75
2023-02-24T23:30:41.172Z,5.03
2023-02-24T23:33:08.487Z,5.63
2023-02-24T23:35:37.152Z,4.72
2023-02-24T23:38:04.502Z,6.20
2023-02-24T23:40:44.367Z,4.95
2023-02-24T23:43:16.542Z,4.35
2023-02-24T23:45:44.872Z,4.72
2023-02-24T23:48:13.463Z,4.40
2023-02-24T23:50:43.098Z,4.55
2023-02-24T23:53:10.808Z,5.40
2023-02-24T23:55:39.944Z,4.88
2023-02-24T23:58:08.273Z,5.28
